Terminal Aerodrome Forecast
Issued by NWS

Home | Current Version | Previous Version | Text Only | Print | Product List | Glossary On
Versions: 1 2 3 4 5 6 7 8 9 10 11 12 13 14 15 16
000
FTAK31 PAFA 200540
TAFAOR
TAF
PAOR 200540Z 2006/2106 00000KT P6SM OVC080
     FM201200 00000KT P6SM SCT120
     FM210000 00000KT P6SM SKC=

USA.gov is the U.S. government's official web portal to all federal, state and local government web resources and services.